createdAt,value
2023-04-18T00:01:29.647Z,7.36
2023-04-18T00:03:56.686Z,7.11
2023-04-18T00:06:23.494Z,7.09
2023-04-18T00:08:50.147Z,7.09
2023-04-18T00:11:16.906Z,7.11
2023-04-18T00:13:44.398Z,7.02
2023-04-18T00:16:13.345Z,7.00
2023-04-18T00:18:40.495Z,6.85
2023-04-18T00:21:08.620Z,6.79
2023-04-18T00:23:36.156Z,6.75
2023-04-18T00:26:02.943Z,6.90
2023-04-18T00:28:29.742Z,6.68
2023-04-18T00:30:56.640Z,6.80
2023-04-18T00:33:23.423Z,6.84
2023-04-18T00:35:50.203Z,6.69
2023-04-18T00:38:16.909Z,6.69
2023-04-18T00:40:43.566Z,6.49
2023-04-18T00:43:13.585Z,6.46
2023-04-18T00:45:40.272Z,6.25
2023-04-18T00:48:07.288Z,6.35
2023-04-18T00:50:34.120Z,6.22
2023-04-18T00:53:01.010Z,6.21
2023-04-18T00:55:29.554Z,6.05
2023-04-18T00:57:56.261Z,5.94
2023-04-18T01:00:23.064Z,6.01
2023-04-18T01:02:53.199Z,6.06
2023-04-18T01:05:21.490Z,5.98
2023-04-18T01:07:48.927Z,5.93
2023-04-18T01:10:15.850Z,5.87
2023-04-18T01:12:42.495Z,5.94
2023-04-18T01:15:09.357Z,5.72
2023-04-18T01:17:36.039Z,5.84
2023-04-18T01:20:06.048Z,5.80
2023-04-18T01:22:33.270Z,5.66
2023-04-18T01:25:00.061Z,5.64
2023-04-18T01:27:26.846Z,5.83
2023-04-18T01:29:53.681Z,5.74
2023-04-18T01:32:20.689Z,5.64
2023-04-18T01:34:47.679Z,5.67
2023-04-18T01:37:14.509Z,5.63
2023-04-18T01:39:41.262Z,5.59
2023-04-18T01:42:08.078Z,5.47
2023-04-18T01:44:34.773Z,5.41
2023-04-18T01:47:01.595Z,5.38
2023-04-18T01:49:28.468Z,5.30
2023-04-18T01:51:55.212Z,5.33
2023-04-18T01:54:21.845Z,5.30
2023-04-18T01:56:48.543Z,5.33
2023-04-18T01:59:15.225Z,5.35
2023-04-18T02:01:42.862Z,5.32
2023-04-18T02:04:09.624Z,5.66
2023-04-18T02:06:36.369Z,5.57
2023-04-18T02:09:03.056Z,5.61
2023-04-18T02:11:30.035Z,5.57
2023-04-18T02:13:56.746Z,5.68
2023-04-18T02:16:23.591Z,5.65
2023-04-18T02:18:52.785Z,5.58
2023-04-18T02:21:19.505Z,5.47
2023-04-18T02:23:46.191Z,5.36
2023-04-18T02:26:12.898Z,5.46
2023-04-18T02:28:39.673Z,5.50
2023-04-18T02:31:07.862Z,5.46
2023-04-18T02:33:34.617Z,5.58
2023-04-18T02:36:01.871Z,5.56
2023-04-18T02:38:28.566Z,5.78
2023-04-18T02:40:56.060Z,5.80
2023-04-18T02:43:22.740Z,5.80
2023-04-18T02:45:49.541Z,6.00
2023-04-18T02:48:16.340Z,6.14
2023-04-18T02:50:43.058Z,6.10
2023-04-18T02:53:09.707Z,6.07
2023-04-18T02:55:37.251Z,6.11
2023-04-18T02:58:03.908Z,5.99
2023-04-18T03:00:30.602Z,5.86
2023-04-18T03:02:57.425Z,5.97
2023-04-18T03:05:24.249Z,6.08
2023-04-18T03:07:50.941Z,5.87
2023-04-18T03:10:17.768Z,5.86
2023-04-18T03:12:44.469Z,5.76
2023-04-18T03:15:11.479Z,5.63
2023-04-18T03:17:38.223Z,5.67
2023-04-18T03:20:05.693Z,5.63
2023-04-18T03:22:32.382Z,6.16
2023-04-18T03:25:00.686Z,6.18
2023-04-18T03:27:27.488Z,6.16
2023-04-18T03:29:54.138Z,6.28
2023-04-18T03:32:21.024Z,6.15
2023-04-18T03:34:48.715Z,6.30
2023-04-18T03:37:15.379Z,6.39
2023-04-18T03:39:42.101Z,6.36
2023-04-18T03:42:08.838Z,6.30
2023-04-18T03:44:35.579Z,6.26
2023-04-18T03:47:02.402Z,6.19
2023-04-18T03:49:29.083Z,6.19
2023-04-18T03:51:55.749Z,6.20
2023-04-18T03:54:22.406Z,6.24
2023-04-18T03:56:49.236Z,6.25
2023-04-18T03:59:16.320Z,6.19
2023-04-18T04:01:43.037Z,6.17
2023-04-18T04:04:12.150Z,6.18
2023-04-18T04:06:39.297Z,6.24
2023-04-18T04:09:06.409Z,6.13
2023-04-18T04:11:33.216Z,6.17
2023-04-18T04:13:59.972Z,6.03
2023-04-18T04:16:28.021Z,6.09
2023-04-18T04:18:54.717Z,5.94
2023-04-18T04:21:21.418Z,5.79
2023-04-18T04:23:48.179Z,5.78
2023-04-18T04:26:15.871Z,5.84
2023-04-18T04:28:46.346Z,5.78
2023-04-18T04:31:13.089Z,5.75
2023-04-18T04:33:41.032Z,5.81
2023-04-18T04:36:08.978Z,6.00
2023-04-18T04:38:38.313Z,6.21
2023-04-18T04:41:09.244Z,6.26
2023-04-18T04:43:36.268Z,6.42
2023-04-18T04:46:04.313Z,6.43
2023-04-18T04:48:31.097Z,6.60
2023-04-18T04:50:59.494Z,6.57
2023-04-18T04:53:28.189Z,6.66
2023-04-18T04:55:55.026Z,6.75
2023-04-18T04:58:21.683Z,6.64
2023-04-18T05:00:48.403Z,6.84
2023-04-18T05:03:15.522Z,6.77
2023-04-18T05:05:42.618Z,6.80
2023-04-18T05:08:09.292Z,7.00
2023-04-18T05:10:38.725Z,6.97
2023-04-18T05:13:05.455Z,7.05
2023-04-18T05:15:32.430Z,7.06
2023-04-18T05:17:59.322Z,7.08
2023-04-18T05:20:26.141Z,7.36
2023-04-18T05:22:52.812Z,7.46
2023-04-18T05:25:19.970Z,7.40
2023-04-18T05:27:47.158Z,7.53
2023-04-18T05:30:14.297Z,7.64
2023-04-18T05:32:41.087Z,7.61
2023-04-18T05:35:08.423Z,7.72
2023-04-18T05:37:35.466Z,7.71
2023-04-18T05:40:02.871Z,7.81
2023-04-18T05:42:29.560Z,7.96
2023-04-18T05:44:56.237Z,8.06
2023-04-18T05:47:24.223Z,7.96
2023-04-18T05:49:51.011Z,8.03
2023-04-18T05:52:17.696Z,7.95
2023-04-18T05:54:44.406Z,8.06
2023-04-18T05:57:11.139Z,8.09
2023-04-18T05:59:37.919Z,8.09
2023-04-18T06:02:04.724Z,7.99
2023-04-18T06:04:31.605Z,8.13
2023-04-18T06:06:58.537Z,8.18
2023-04-18T06:09:25.213Z,8.15
2023-04-18T06:11:51.930Z,8.24
2023-04-18T06:14:18.607Z,8.21
2023-04-18T06:16:45.302Z,8.28
2023-04-18T06:19:11.970Z,8.36
2023-04-18T06:21:39.566Z,8.39
2023-04-18T06:24:06.780Z,8.33
2023-04-18T06:26:33.560Z,8.50
2023-04-18T06:29:00.310Z,8.42
2023-04-18T06:31:27.128Z,8.32
2023-04-18T06:33:53.876Z,8.46
2023-04-18T06:36:21.421Z,8.52
2023-04-18T06:38:48.121Z,8.58
2023-04-18T06:41:15.914Z,8.71
2023-04-18T06:43:52.062Z,8.64
2023-04-18T06:46:28.671Z,8.55
2023-04-18T06:48:55.433Z,8.51
2023-04-18T06:51:22.164Z,8.60
2023-04-18T06:53:52.506Z,8.59
2023-04-18T06:56:20.580Z,8.51
2023-04-18T06:58:47.875Z,8.52
2023-04-18T07:01:14.717Z,8.52
2023-04-18T07:03:41.416Z,8.55
2023-04-18T07:06:10.572Z,8.49
2023-04-18T07:08:37.470Z,8.47
2023-04-18T07:11:04.299Z,8.55
2023-04-18T07:13:31.016Z,8.49
2023-04-18T07:15:57.763Z,8.62
2023-04-18T07:18:36.740Z,8.64
2023-04-18T07:21:07.493Z,8.54
2023-04-18T07:23:34.834Z,8.56
2023-04-18T07:26:02.884Z,8.61
2023-04-18T07:28:31.152Z,8.70
2023-04-18T07:30:58.220Z,8.70
2023-04-18T07:33:25.584Z,8.79
2023-04-18T07:35:53.096Z,8.80
2023-04-18T07:38:20.057Z,8.92
2023-04-18T07:40:47.107Z,8.84
2023-04-18T07:43:13.785Z,8.87
2023-04-18T07:45:43.439Z,8.79
2023-04-18T07:48:11.354Z,8.96
2023-04-18T07:50:38.130Z,8.98
2023-04-18T07:53:04.933Z,8.86
2023-04-18T07:55:31.904Z,9.17
2023-04-18T07:57:58.539Z,9.21
2023-04-18T08:00:25.272Z,9.21
2023-04-18T08:02:52.217Z,9.02
2023-04-18T08:05:19.913Z,9.05
2023-04-18T08:07:46.593Z,8.91
2023-04-18T08:10:13.367Z,8.87
2023-04-18T08:12:40.699Z,8.81
2023-04-18T08:15:08.179Z,8.76
2023-04-18T08:17:34.988Z,8.84
2023-04-18T08:20:05.067Z,8.94
2023-04-18T08:22:31.871Z,8.90
2023-04-18T08:25:05.086Z,8.83
2023-04-18T08:27:32.694Z,8.77
2023-04-18T08:29:59.534Z,8.87
2023-04-18T08:32:26.329Z,8.93
2023-04-18T08:34:53.097Z,8.85
2023-04-18T08:37:19.796Z,9.06
2023-04-18T08:39:46.493Z,9.11
2023-04-18T08:42:19.394Z,9.14
2023-04-18T08:44:47.265Z,9.16
2023-04-18T08:47:14.731Z,9.18
2023-04-18T08:49:42.688Z,9.16
2023-04-18T08:52:18.995Z,9.27
2023-04-18T08:54:47.217Z,9.22
2023-04-18T08:57:16.708Z,9.23
2023-04-18T08:59:47.117Z,9.54
2023-04-18T09:02:15.670Z,9.48
2023-04-18T09:04:52.671Z,9.61
2023-04-18T09:07:30.955Z,9.61
2023-04-18T09:09:58.212Z,9.71
2023-04-18T09:12:27.098Z,9.66
2023-04-18T09:14:59.686Z,9.79
2023-04-18T09:17:38.076Z,9.79
2023-04-18T09:20:06.180Z,9.78
2023-04-18T09:22:52.997Z,9.83
2023-04-18T09:25:40.056Z,9.70
2023-04-18T09:28:31.918Z,9.61
2023-04-18T09:31:13.379Z,9.79
2023-04-18T09:33:52.780Z,9.93
2023-04-18T09:36:23.827Z,9.94
2023-04-18T09:38:55.332Z,9.99
2023-04-18T09:41:23.339Z,9.97
2023-04-18T09:43:50.129Z,9.74
2023-04-18T09:46:21.757Z,9.80
2023-04-18T09:48:48.543Z,9.90
2023-04-18T09:51:16.670Z,9.84
2023-04-18T09:53:44.894Z,10.14
2023-04-18T09:56:28.237Z,10.32
2023-04-18T09:59:07.336Z,10.53
2023-04-18T10:01:34.995Z,10.29
2023-04-18T10:04:07.786Z,10.40
2023-04-18T10:06:38.503Z,10.28
2023-04-18T10:09:06.386Z,10.40
2023-04-18T10:11:33.455Z,10.69
2023-04-18T10:14:11.830Z,10.65
2023-04-18T10:16:39.633Z,10.75
2023-04-18T10:19:26.451Z,11.05
2023-04-18T10:22:01.229Z,10.76
2023-04-18T10:24:57.086Z,11.39
2023-04-18T10:27:48.400Z,11.40
2023-04-18T10:30:18.741Z,11.12
2023-04-18T10:32:48.754Z,11.20
2023-04-18T10:35:15.503Z,11.39
2023-04-18T10:37:52.329Z,11.49
2023-04-18T10:40:33.196Z,11.23
2023-04-18T10:43:00.130Z,11.41
2023-04-18T10:45:29.716Z,11.29
2023-04-18T10:48:32.627Z,11.30
2023-04-18T10:51:18.699Z,11.53
2023-04-18T10:53:52.377Z,12.02
2023-04-18T10:56:20.487Z,12.17
2023-04-18T10:58:51.287Z,12.48
2023-04-18T11:01:27.062Z,12.38
2023-04-18T11:03:55.873Z,12.20
2023-04-18T11:06:27.235Z,12.19
2023-04-18T11:09:13.854Z,12.11
2023-04-18T11:11:41.585Z,12.12
2023-04-18T11:14:08.444Z,12.47
2023-04-18T11:16:35.677Z,12.45
2023-04-18T11:19:20.040Z,12.59
2023-04-18T11:21:46.923Z,12.59
2023-04-18T11:24:22.000Z,12.71
2023-04-18T11:26:48.650Z,12.71
2023-04-18T11:29:17.951Z,12.71
2023-04-18T11:31:55.819Z,12.72
2023-04-18T11:34:30.401Z,12.19
2023-04-18T11:36:57.422Z,12.58
2023-04-18T11:39:24.464Z,12.92
2023-04-18T11:41:51.356Z,12.88
2023-04-18T11:44:18.800Z,12.58
2023-04-18T11:46:45.501Z,12.40
2023-04-18T11:49:32.306Z,12.52
2023-04-18T11:52:01.125Z,12.77
2023-04-18T11:54:41.752Z,13.01
2023-04-18T11:57:29.219Z,12.81
2023-04-18T11:59:57.891Z,12.85
2023-04-18T12:02:45.882Z,12.73
2023-04-18T12:05:24.301Z,12.70
2023-04-18T12:07:51.321Z,12.74
2023-04-18T12:10:28.050Z,12.89
2023-04-18T12:12:58.697Z,12.64
2023-04-18T12:15:30.144Z,12.74
2023-04-18T12:18:01.606Z,12.82
2023-04-18T12:20:36.447Z,12.72
2023-04-18T12:23:03.817Z,12.98
2023-04-18T12:25:31.629Z,13.12
2023-04-18T12:27:58.353Z,13.36
2023-04-18T12:30:27.916Z,13.02
2023-04-18T12:32:58.005Z,12.79
2023-04-18T12:35:25.651Z,12.71
2023-04-18T12:37:54.352Z,12.65
2023-04-18T12:40:22.976Z,12.96
2023-04-18T12:42:51.032Z,12.91
2023-04-18T12:45:19.071Z,12.92
2023-04-18T12:47:47.492Z,12.95
2023-04-18T12:50:19.262Z,13.10
2023-04-18T12:52:46.750Z,13.17
2023-04-18T12:55:15.554Z,12.80
2023-04-18T12:57:43.160Z,12.96
2023-04-18T13:00:11.213Z,13.19
2023-04-18T13:02:40.303Z,13.13
2023-04-18T13:05:09.292Z,13.37
2023-04-18T13:07:37.979Z,13.02
2023-04-18T13:10:05.300Z,13.27
2023-04-18T13:12:32.035Z,13.14
2023-04-18T13:14:58.690Z,12.88
2023-04-18T13:17:26.222Z,13.00
2023-04-18T13:19:52.916Z,12.73
2023-04-18T13:22:20.747Z,12.93
2023-04-18T13:24:48.243Z,12.92
2023-04-18T13:27:15.402Z,13.00
2023-04-18T13:29:43.457Z,12.92
2023-04-18T13:32:10.363Z,12.79
2023-04-18T13:34:39.089Z,12.67
2023-04-18T13:37:06.494Z,12.72
2023-04-18T13:39:33.709Z,12.84
2023-04-18T13:42:02.966Z,12.82
2023-04-18T13:44:30.831Z,12.64
2023-04-18T13:46:57.901Z,12.73
2023-04-18T13:49:24.639Z,12.99
2023-04-18T13:51:53.526Z,12.96
2023-04-18T13:54:20.606Z,12.81
2023-04-18T13:56:47.352Z,12.67
2023-04-18T13:59:15.047Z,12.96
2023-04-18T14:01:42.829Z,13.23
2023-04-18T14:04:09.681Z,13.55
2023-04-18T14:06:36.609Z,13.62
2023-04-18T14:09:03.354Z,13.50
2023-04-18T14:11:30.120Z,13.65
2023-04-18T14:13:56.775Z,13.64
2023-04-18T14:16:23.781Z,13.21
2023-04-18T14:18:50.661Z,12.80
2023-04-18T14:21:17.408Z,12.56
2023-04-18T14:23:44.050Z,12.59
2023-04-18T14:26:11.217Z,12.79
2023-04-18T14:28:37.946Z,12.87
2023-04-18T14:31:06.502Z,13.09
2023-04-18T14:33:34.138Z,13.10
2023-04-18T14:36:02.470Z,13.20
2023-04-18T14:38:29.216Z,13.03
2023-04-18T14:40:56.019Z,13.27
2023-04-18T14:43:22.769Z,13.44
2023-04-18T14:45:49.699Z,13.37
2023-04-18T14:48:16.827Z,13.49
2023-04-18T14:50:43.865Z,13.16
2023-04-18T14:53:11.110Z,13.14
2023-04-18T14:55:37.945Z,13.15
2023-04-18T14:58:04.605Z,13.31
2023-04-18T15:00:32.465Z,13.41
2023-04-18T15:02:59.327Z,13.46
2023-04-18T15:05:26.513Z,13.21
2023-04-18T15:07:53.278Z,13.27
2023-04-18T15:10:22.716Z,12.96
2023-04-18T15:12:51.073Z,12.82
2023-04-18T15:15:19.411Z,12.72
2023-04-18T15:17:46.108Z,12.79
2023-04-18T15:20:13.087Z,12.82
2023-04-18T15:22:39.828Z,12.71
2023-04-18T15:25:07.350Z,12.63
2023-04-18T15:27:34.006Z,12.48
2023-04-18T15:30:00.851Z,12.62
2023-04-18T15:32:27.601Z,12.47
2023-04-18T15:34:54.307Z,12.53
2023-04-18T15:37:21.513Z,12.65
2023-04-18T15:39:48.254Z,12.69
2023-04-18T15:42:14.970Z,12.62
2023-04-18T15:44:41.631Z,12.45
2023-04-18T15:47:08.353Z,12.50
2023-04-18T15:49:38.623Z,12.56
2023-04-18T15:52:06.848Z,12.79
2023-04-18T15:54:33.540Z,12.80
2023-04-18T15:57:00.169Z,12.96
2023-04-18T15:59:26.906Z,12.76
2023-04-18T16:01:53.714Z,12.49
2023-04-18T16:04:20.479Z,12.71
2023-04-18T16:06:47.184Z,12.52
2023-04-18T16:09:14.464Z,12.32
2023-04-18T16:11:41.196Z,12.49
2023-04-18T16:14:07.892Z,12.41
2023-04-18T16:16:34.587Z,12.43
2023-04-18T16:19:01.267Z,12.54
2023-04-18T16:21:28.379Z,12.27
2023-04-18T16:23:55.070Z,12.27
2023-04-18T16:26:23.762Z,12.37
2023-04-18T16:28:50.955Z,12.14
2023-04-18T16:31:17.662Z,12.28
2023-04-18T16:33:45.365Z,12.06
2023-04-18T16:36:12.220Z,11.93
2023-04-18T16:38:38.924Z,11.79
2023-04-18T16:41:05.883Z,11.76
2023-04-18T16:43:36.319Z,11.73
2023-04-18T16:46:03.400Z,11.64
2023-04-18T16:48:30.233Z,11.58
2023-04-18T16:50:57.379Z,11.63
2023-04-18T16:53:24.603Z,11.55
2023-04-18T16:55:53.042Z,11.43
2023-04-18T16:58:21.170Z,11.35
2023-04-18T17:00:47.835Z,11.38
2023-04-18T17:03:14.576Z,11.48
2023-04-18T17:05:41.420Z,11.45
2023-04-18T17:08:08.668Z,11.42
2023-04-18T17:10:35.474Z,11.41
2023-04-18T17:13:03.404Z,11.26
2023-04-18T17:15:30.788Z,11.10
2023-04-18T17:18:00.269Z,11.16
2023-04-18T17:20:28.028Z,11.11
2023-04-18T17:22:55.254Z,11.07
2023-04-18T17:25:22.134Z,10.97
2023-04-18T17:27:48.888Z,10.89
2023-04-18T17:30:15.702Z,10.90
2023-04-18T17:32:45.901Z,10.84
2023-04-18T17:35:14.842Z,10.81
2023-04-18T17:37:42.748Z,10.73
2023-04-18T17:40:11.408Z,10.69
2023-04-18T17:42:38.342Z,10.74
2023-04-18T17:45:06.902Z,10.63
2023-04-18T17:47:34.613Z,10.62
2023-04-18T17:50:01.427Z,10.55
2023-04-18T17:52:31.237Z,10.63
2023-04-18T17:54:59.487Z,10.45
2023-04-18T17:57:26.702Z,10.58
2023-04-18T17:59:53.693Z,10.49
2023-04-18T18:02:20.539Z,10.43
2023-04-18T18:04:47.313Z,10.30
2023-04-18T18:07:14.077Z,10.28
2023-04-18T18:09:44.564Z,10.10
2023-04-18T18:12:11.727Z,10.07
2023-04-18T18:14:40.435Z,10.00
2023-04-18T18:17:07.451Z,9.95
2023-04-18T18:19:37.498Z,9.94
2023-04-18T18:22:04.265Z,9.91
2023-04-18T18:24:31.115Z,9.78
2023-04-18T18:26:58.136Z,9.75
2023-04-18T18:29:25.055Z,9.64
2023-04-18T18:31:51.755Z,9.76
2023-04-18T18:34:19.924Z,9.60
2023-04-18T18:36:47.231Z,9.54
2023-04-18T18:39:16.529Z,9.49
2023-04-18T18:41:43.666Z,9.51
2023-04-18T18:44:14.491Z,9.48
2023-04-18T18:46:43.163Z,9.45
2023-04-18T18:49:10.122Z,9.37
2023-04-18T18:51:37.171Z,9.41
2023-04-18T18:54:03.985Z,9.21
2023-04-18T18:56:30.690Z,9.21
2023-04-18T18:58:57.376Z,9.26
2023-04-18T19:01:24.137Z,9.06
2023-04-18T19:03:51.168Z,9.24
2023-04-18T19:06:18.087Z,9.29
2023-04-18T19:08:44.928Z,9.14
2023-04-18T19:11:12.793Z,9.09
2023-04-18T19:13:39.715Z,9.23
2023-04-18T19:16:06.511Z,9.13
2023-04-18T19:18:33.450Z,9.19
2023-04-18T19:21:00.164Z,9.15
2023-04-18T19:23:27.822Z,9.03
2023-04-18T19:25:54.754Z,9.00
2023-04-18T19:28:22.867Z,8.93
2023-04-18T19:30:50.298Z,8.83
2023-04-18T19:33:17.350Z,8.83
2023-04-18T19:35:44.060Z,9.08
2023-04-18T19:38:10.755Z,9.04
2023-04-18T19:40:37.752Z,9.06
2023-04-18T19:43:04.417Z,8.95
2023-04-18T19:45:31.715Z,9.05
2023-04-18T19:47:58.517Z,8.97
2023-04-18T19:50:25.370Z,8.81
2023-04-18T19:52:52.028Z,8.73
2023-04-18T19:55:18.709Z,8.70
2023-04-18T19:57:45.928Z,8.70
2023-04-18T20:00:13.452Z,8.74
2023-04-18T20:02:41.408Z,8.64
2023-04-18T20:05:09.297Z,8.52
2023-04-18T20:07:36.278Z,8.40
2023-04-18T20:10:04.362Z,8.41
2023-04-18T20:12:31.482Z,8.50
2023-04-18T20:14:59.001Z,8.46
2023-04-18T20:17:30.508Z,8.34
2023-04-18T20:19:57.829Z,8.38
2023-04-18T20:22:27.408Z,8.29
2023-04-18T20:24:57.121Z,8.31
2023-04-18T20:27:24.420Z,8.16
2023-04-18T20:29:51.156Z,8.02
2023-04-18T20:32:17.823Z,7.95
2023-04-18T20:34:46.639Z,8.09
2023-04-18T20:37:15.530Z,8.06
2023-04-18T20:39:42.343Z,8.07
2023-04-18T20:42:14.189Z,8.12
2023-04-18T20:44:43.247Z,8.11
2023-04-18T20:47:09.926Z,8.06
2023-04-18T20:49:36.730Z,8.19
2023-04-18T20:52:03.654Z,8.28
2023-04-18T20:54:30.488Z,8.12
2023-04-18T20:56:57.195Z,8.23
2023-04-18T20:59:24.126Z,8.18
2023-04-18T21:01:51.054Z,8.26
2023-04-18T21:04:18.085Z,8.22
2023-04-18T21:06:45.066Z,8.23
2023-04-18T21:09:11.842Z,8.39
2023-04-18T21:11:38.598Z,8.23
2023-04-18T21:14:06.754Z,8.24
2023-04-18T21:16:33.946Z,8.25
2023-04-18T21:19:00.699Z,8.24
2023-04-18T21:21:27.386Z,8.28
2023-04-18T21:23:54.146Z,8.28
2023-04-18T21:26:21.096Z,8.20
2023-04-18T21:28:56.325Z,8.35
2023-04-18T21:31:23.578Z,8.23
2023-04-18T21:33:57.326Z,8.25
2023-04-18T21:36:25.004Z,8.19
2023-04-18T21:38:53.313Z,8.17
2023-04-18T21:41:20.850Z,8.13
2023-04-18T21:43:47.882Z,8.02
2023-04-18T21:46:15.262Z,8.14
2023-04-18T21:48:43.549Z,8.12
2023-04-18T21:51:11.947Z,8.11
2023-04-18T21:53:39.037Z,8.12
2023-04-18T21:56:06.389Z,8.05
2023-04-18T21:58:33.445Z,7.96
2023-04-18T22:01:00.321Z,7.85
2023-04-18T22:03:29.049Z,7.93
2023-04-18T22:05:56.619Z,7.97
2023-04-18T22:08:26.519Z,8.03
2023-04-18T22:10:58.198Z,7.92
2023-04-18T22:13:30.145Z,7.85
2023-04-18T22:15:58.269Z,7.86
2023-04-18T22:18:25.457Z,7.79
2023-04-18T22:20:53.775Z,7.64
2023-04-18T22:23:20.715Z,7.74
2023-04-18T22:25:47.765Z,7.51
2023-04-18T22:28:14.585Z,7.58
2023-04-18T22:30:41.586Z,7.34
2023-04-18T22:33:09.257Z,7.30
2023-04-18T22:35:35.965Z,7.08
2023-04-18T22:38:02.655Z,7.08
2023-04-18T22:40:29.360Z,7.07
2023-04-18T22:42:56.097Z,7.20
2023-04-18T22:45:22.924Z,7.27
2023-04-18T22:47:49.602Z,7.22
2023-04-18T22:50:16.400Z,7.26
2023-04-18T22:52:43.077Z,7.23
2023-04-18T22:55:10.048Z,7.20
2023-04-18T22:57:38.476Z,7.49
2023-04-18T23:00:06.676Z,7.43
2023-04-18T23:02:33.495Z,7.62
2023-04-18T23:05:02.408Z,7.47
2023-04-18T23:07:29.200Z,7.52
2023-04-18T23:09:56.052Z,7.44
2023-04-18T23:12:22.827Z,7.40
2023-04-18T23:14:49.789Z,7.51
2023-04-18T23:17:16.669Z,7.53
2023-04-18T23:19:45.137Z,7.35
2023-04-18T23:22:11.953Z,7.27
2023-04-18T23:24:38.996Z,7.44
2023-04-18T23:27:05.913Z,7.29
2023-04-18T23:29:37.764Z,7.28
2023-04-18T23:32:05.694Z,7.28
2023-04-18T23:34:32.408Z,7.49
2023-04-18T23:37:00.099Z,7.33
2023-04-18T23:39:26.907Z,7.23
2023-04-18T23:41:53.585Z,7.30
2023-04-18T23:44:20.465Z,7.18
2023-04-18T23:46:47.859Z,7.20
2023-04-18T23:49:15.086Z,7.15
2023-04-18T23:51:42.168Z,7.15
2023-04-18T23:54:08.958Z,7.02
2023-04-18T23:56:35.689Z,6.99
2023-04-18T23:59:02.570Z,7.14
